Crow Hill, Vermont
Current Conditions -  °F | °C
As of 12:35 PM on Thursday 30 Oct 2014 (Local Time) from KFSO Reporting Station
Overcast Overcast  
Wind Chill: 45°   Ceiling: 2900
Heat Index: 45°   Visibility: 10mi
Dew Point: 34°   Wind: 3mph
Humidity: 64%   Direction: 310°NW
Pressure: 29.97"   Gusts: NA
Location:  44.8776°N, 72.9201°W
Report Text: KFSO 301635Z AUTO 31003KT 10SM OVC029 07/01 A2997 RMK AO2 T00740009
Loading
Personal Weather Stations






























Interactive Weather Map
Tropical Storm Tracking
New forecast layout! Learn more

10-Day Weather Forecast

Advertisements
Track Severe Weather on mobile